Time;durP1;ratioP1;P1;durP2;ratioP2;P2;SDS_P1;SDS_P2;PMS_P1;PMS_P2;Temp;Humidity;BMP_temperature;BMP_pressure;BME280_temperature;BME280_humidity;BME280_pressure;Samples;Min_cycle;Max_cycle;Signal;HPM_P1;HPM_P2
2021/08/06 00:00:28;;;;;;;;;;;;;;;-144.99;91.13;52362.50;5008585;28;20387;-60
2021/08/06 00:02:54;;;;;;;;;;;;;;;-144.99;91.07;52340.06;5019366;28;20291;-58
2021/08/06 00:05:21;;;;;;;;;;;;;;;-144.99;91.24;52333.94;5010266;28;19929;-58
2021/08/06 00:07:47;;;;;;;;;;;;;;;-144.99;91.35;52360.44;5008104;28;19933;-59
2021/08/06 00:10:15;;;;;;;;;;;;;;;-144.99;91.94;52325.81;5007696;28;19929;-58
2021/08/06 00:12:41;;;;;;;;;;;;;;;-144.99;92.02;52342.09;5007772;28;20379;-59
2021/08/06 00:15:08;;;;;;;;;;;;;;;-144.99;92.40;52356.38;5007859;28;19964;-62
2021/08/06 00:17:35;;;;;;;;;;;;;;;-144.99;92.69;52325.81;5015397;28;19929;-60
2021/08/06 00:20:01;;;;;;;;;;;;;;;-144.99;92.75;52340.06;5011379;28;20403;-58
2021/08/06 00:22:27;;;;;;;;;;;;;;;-144.99;92.77;52338.03;5007433;28;19961;-58
2021/08/06 00:24:54;;;;;;;;;;;;;;;-144.99;93.01;52352.28;5007685;28;20263;-58
2021/08/06 00:27:22;;;;;;;;;;;;;;;-144.99;93.23;52342.09;5007813;28;20152;-58
2021/08/06 00:29:48;;;;;;;;;;;;;;;-144.99;93.61;52329.88;5007379;28;19925;-59
2021/08/06 00:32:14;;;;;;;;;;;;;;;-144.99;94.46;52333.94;5007818;28;19956;-58
2021/08/06 00:34:40;;;;;;;;;;;;;;;-144.99;94.67;52309.50;5007361;28;19968;-58
2021/08/06 00:37:07;;;;;;;;;;;;;;;-144.99;95.65;52366.56;5003431;28;19936;-59
2021/08/06 00:39:33;;;;;;;;;;;;;;;-144.99;95.75;52354.34;5013774;28;20483;-59
2021/08/06 00:42:00;;;;;;;;;;;;;;;-144.99;96.59;52338.03;5007226;28;20204;-59
2021/08/06 00:44:27;;;;;;;;;;;;;;;-144.99;96.66;52323.75;5007132;28;20459;-60
2021/08/06 00:46:54;;;;;;;;;;;;;;;-144.99;97.05;52350.25;5007210;28;19953;-60
2021/08/06 00:49:20;;;;;;;;;;;;;;;-144.99;97.46;52350.25;5009133;28;20092;-60
2021/08/06 00:51:47;;;;;;;;;;;;;;;-144.99;97.13;52350.25;5007701;28;19958;-60
2021/08/06 00:54:16;;;;;;;;;;;;;;;-144.99;97.14;52374.72;5008772;28;19970;-60
2021/08/06 00:56:42;;;;;;;;;;;;;;;-144.99;97.20;52321.72;4661477;28;9999763;-60
2021/08/06 00:59:08;;;;;;;;;;;;;;;-144.99;97.32;52317.66;5006144;28;19957;-60
2021/08/06 01:01:37;;;;;;;;;;;;;;;-144.99;97.38;52344.16;5016629;28;19952;-60
2021/08/06 01:04:06;;;;;;;;;;;;;;;-144.99;97.51;52346.19;5017198;28;20467;-60
2021/08/06 01:06:37;;;;;;;;;;;;;;;-144.99;97.39;52358.41;5008228;28;19932;-61
2021/08/06 01:09:08;;;;;;;;;;;;;;;-144.99;97.74;52352.28;5007829;28;20099;-61
2021/08/06 01:11:36;;;;;;;;;;;;;;;-144.99;97.78;52338.03;5004179;28;20569;-61
2021/08/06 01:14:04;;;;;;;;;;;;;;;-144.99;97.65;52327.84;5010222;28;19975;-61
2021/08/06 01:16:32;;;;;;;;;;;;;;;-144.99;98.61;52338.03;5015832;28;20039;-61
2021/08/06 01:19:07;;;;;;;;;;;;;;;-144.99;98.26;52346.19;5008089;28;19964;-61
2021/08/06 01:21:41;;;;;;;;;;;;;;;-144.99;99.14;52370.63;5008722;28;19935;-60
2021/08/06 01:24:09;;;;;;;;;;;;;;;-144.99;99.03;52352.28;5009459;28;19963;-61
2021/08/06 01:26:38;;;;;;;;;;;;;;;-144.99;99.10;52364.53;5009493;28;19945;-61
2021/08/06 01:29:05;;;;;;;;;;;;;;;-144.99;99.11;52395.09;5009028;28;20399;-64
2021/08/06 01:31:32;;;;;;;;;;;;;;;-144.99;99.00;52346.19;5009164;28;19925;-64
2021/08/06 01:34:00;;;;;;;;;;;;;;;-144.99;99.12;52346.19;5007979;28;21337;-63
2021/08/06 01:36:26;;;;;;;;;;;;;;;-144.99;98.92;52333.94;5010776;28;19926;-63
2021/08/06 01:38:53;;;;;;;;;;;;;;;-144.99;99.27;52327.84;5014935;28;19929;-63
2021/08/06 01:41:25;;;;;;;;;;;;;;;-144.99;99.81;52366.56;5008967;28;20613;-63
2021/08/06 01:43:59;;;;;;;;;;;;;;;-144.99;100.00;52329.88;5009265;28;19925;-63
2021/08/06 01:46:29;;;;;;;;;;;;;;;-144.99;100.00;52366.56;5009637;28;19957;-63
2021/08/06 01:48:58;;;;;;;;;;;;;;;-144.99;100.00;52374.72;5009204;28;19925;-62
2021/08/06 01:51:24;;;;;;;;;;;;;;;-144.99;100.00;52358.41;5008771;28;19948;-63
2021/08/06 01:53:53;;;;;;;;;;;;;;;-144.99;100.00;52356.38;5009481;28;19933;-64
2021/08/06 01:56:20;;;;;;;;;;;;;;;-144.99;100.00;52315.59;5011047;28;19933;-60
2021/08/06 01:58:47;;;;;;;;;;;;;;;-144.99;100.00;52342.09;5013215;28;19925;-62
2021/08/06 02:01:14;;;;;;;;;;;;;;;-144.99;100.00;52360.44;5011889;28;20403;-62
2021/08/06 02:03:41;;;;;;;;;;;;;;;-144.99;100.00;52388.97;5022972;28;20302;-61
2021/08/06 02:06:08;;;;;;;;;;;;;;;-144.99;100.00;52364.53;5008447;28;19941;-61
2021/08/06 02:08:36;;;;;;;;;;;;;;;-144.99;100.00;52372.69;5008773;28;19970;-64
2021/08/06 02:11:02;;;;;;;;;;;;;;;-144.99;100.00;52333.94;5008817;28;19933;-67
2021/08/06 02:13:29;;;;;;;;;;;;;;;-144.99;100.00;52354.34;5009651;28;19933;-65
2021/08/06 02:15:55;;;;;;;;;;;;;;;-144.99;100.00;52340.06;5009983;28;19963;-65
2021/08/06 02:18:24;;;;;;;;;;;;;;;-144.99;100.00;52340.06;5021406;28;19932;-67
2021/08/06 02:20:52;;;;;;;;;;;;;;;-144.99;100.00;52313.56;5008915;28;19976;-67
2021/08/06 02:23:19;;;;;;;;;;;;;;;-144.99;100.00;52391.03;5009460;28;19965;-61
2021/08/06 02:25:45;;;;;;;;;;;;;;;-144.99;100.00;52354.34;5012762;28;20021;-62
2021/08/06 02:28:12;;;;;;;;;;;;;;;-144.99;100.00;52370.63;5012788;28;19944;-61
2021/08/06 02:30:39;;;;;;;;;;;;;;;-144.99;100.00;52313.56;5012525;28;19966;-61
2021/08/06 02:33:06;;;;;;;;;;;;;;;-144.99;100.00;52329.88;5012719;28;19925;-66
2021/08/06 02:35:33;;;;;;;;;;;;;;;-144.99;100.00;52333.94;5010754;28;19925;-66
2021/08/06 02:38:00;;;;;;;;;;;;;;;-144.99;100.00;52382.88;5016846;28;19951;-66
2021/08/06 02:40:26;;;;;;;;;;;;;;;-144.99;100.00;52352.28;5019163;28;19959;-65
2021/08/06 02:45:28;;;;;;;;;;;;;;;-144.99;100.00;52376.75;5049380;28;20002;-61
2021/08/06 02:47:55;;;;;;;;;;;;;;;-144.99;100.00;52366.56;5047059;28;19982;-61
2021/08/06 02:50:21;;;;;;;;;;;;;;;-144.99;100.00;52370.63;5052522;28;19967;-59
2021/08/06 02:52:49;;;;;;;;;;;;;;;-144.99;100.00;52370.63;5052408;28;20409;-59
2021/08/06 02:55:15;;;;;;;;;;;;;;;-144.99;100.00;52370.63;5057576;28;19928;-59
2021/08/06 02:57:41;;;;;;;;;;;;;;;-144.99;100.00;52338.03;5033029;28;19989;-59
2021/08/06 03:00:08;;;;;;;;;;;;;;;-144.99;100.00;52333.94;5055163;28;19955;-59
2021/08/06 03:02:35;;;;;;;;;;;;;;;-144.99;100.00;52384.91;5060130;28;19924;-59
2021/08/06 03:05:01;;;;;;;;;;;;;;;-144.99;100.00;52374.72;5045637;28;19925;-58
2021/08/06 03:07:27;;;;;;;;;;;;;;;-144.99;100.00;52354.34;5037924;28;19963;-58
2021/08/06 03:09:56;;;;;;;;;;;;;;;-144.99;100.00;52346.19;5040210;28;20184;-59
2021/08/06 03:12:22;;;;;;;;;;;;;;;-144.99;100.00;52358.41;5032827;28;20466;-59
2021/08/06 03:14:49;;;;;;;;;;;;;;;-144.99;100.00;52321.72;5032447;28;20299;-59
2021/08/06 03:17:15;;;;;;;;;;;;;;;-144.99;100.00;52374.72;5044028;28;19924;-61
2021/08/06 03:19:42;;;;;;;;;;;;;;;-144.99;100.00;52354.34;5046381;28;19961;-61
2021/08/06 03:22:08;;;;;;;;;;;;;;;-144.99;100.00;52382.88;5032240;28;19971;-60
2021/08/06 03:24:35;;;;;;;;;;;;;;;-144.99;100.00;52336.00;5031793;28;19946;-61
2021/08/06 03:27:02;;;;;;;;;;;;;;;-144.99;100.00;52360.44;5032371;28;19926;-60
2021/08/06 03:29:29;;;;;;;;;;;;;;;-144.99;100.00;52338.03;5031581;28;19964;-61
2021/08/06 03:31:55;;;;;;;;;;;;;;;-144.99;100.00;52403.25;5032248;28;20226;-61
2021/08/06 03:34:22;;;;;;;;;;;;;;;-144.99;100.00;52374.72;5032712;28;20343;-61
2021/08/06 03:36:48;;;;;;;;;;;;;;;-144.99;100.00;52395.09;5055774;28;19951;-61
2021/08/06 03:39:14;;;;;;;;;;;;;;;-144.99;100.00;52358.41;5051062;28;19936;-62
2021/08/06 03:41:41;;;;;;;;;;;;;;;-144.99;100.00;52374.72;5032181;28;19931;-61
2021/08/06 03:44:08;;;;;;;;;;;;;;;-144.99;100.00;52354.34;5032020;28;19925;-61
2021/08/06 03:46:35;;;;;;;;;;;;;;;-144.99;100.00;52333.94;5031736;28;19925;-62
2021/08/06 03:49:01;;;;;;;;;;;;;;;-144.99;100.00;52338.03;5031930;28;20046;-62
2021/08/06 03:51:27;;;;;;;;;;;;;;;-144.99;100.00;52364.53;5031842;28;19926;-61
2021/08/06 03:53:54;;;;;;;;;;;;;;;-144.99;100.00;52382.88;5031976;28;19947;-61
2021/08/06 03:56:20;;;;;;;;;;;;;;;-144.99;100.00;52317.66;5043225;28;19925;-61
2021/08/06 03:58:47;;;;;;;;;;;;;;;-144.99;100.00;52358.41;5038049;28;20141;-61
2021/08/06 04:01:15;;;;;;;;;;;;;;;-144.99;100.00;52313.56;5050832;28;20387;-62
2021/08/06 04:03:41;;;;;;;;;;;;;;;-144.99;100.00;52366.56;5062095;28;20344;-62
2021/08/06 04:06:08;;;;;;;;;;;;;;;-144.99;100.00;52370.63;5031360;28;19961;-63
2021/08/06 04:08:34;;;;;;;;;;;;;;;-144.99;100.00;52352.28;5031643;28;19926;-64
2021/08/06 04:11:00;;;;;;;;;;;;;;;-144.99;100.00;52358.41;5032005;28;20004;-63
2021/08/06 04:13:27;;;;;;;;;;;;;;;-144.99;100.00;52350.25;5032061;28;19967;-64
2021/08/06 04:15:53;;;;;;;;;;;;;;;-144.99;100.00;52346.19;5031680;28;20323;-62
2021/08/06 04:18:21;;;;;;;;;;;;;;;-144.99;100.00;52358.41;5057093;28;19931;-62
2021/08/06 04:20:47;;;;;;;;;;;;;;;-144.99;100.00;52358.41;5031724;28;19952;-63
2021/08/06 04:23:13;;;;;;;;;;;;;;;-144.99;100.00;52376.75;5031389;28;20479;-62
2021/08/06 04:25:40;;;;;;;;;;;;;;;-144.99;100.00;52338.03;5031025;28;19969;-62
2021/08/06 04:28:07;;;;;;;;;;;;;;;-144.99;100.00;52354.34;5031324;28;19970;-62
2021/08/06 04:30:33;;;;;;;;;;;;;;;-144.99;100.00;52309.50;5031001;28;20307;-63
2021/08/06 04:32:59;;;;;;;;;;;;;;;-144.99;100.00;52338.03;5031129;28;19936;-64
2021/08/06 04:35:27;;;;;;;;;;;;;;;-144.99;100.00;52350.25;5031604;28;20428;-62
2021/08/06 04:37:56;;;;;;;;;;;;;;;-144.99;100.00;52378.78;5048599;28;20425;-63
2021/08/06 04:40:22;;;;;;;;;;;;;;;-144.99;100.00;52333.94;5037879;28;19925;-62
2021/08/06 04:42:49;;;;;;;;;;;;;;;-144.99;100.00;52356.38;5031426;28;20047;-63
2021/08/06 04:45:15;;;;;;;;;;;;;;;-144.99;100.00;52370.63;5031277;28;19931;-60
2021/08/06 04:47:45;;;;;;;;;;;;;;;-144.99;100.00;52313.56;5042844;28;20423;-60
2021/08/06 04:50:13;;;;;;;;;;;;;;;-144.99;100.00;52370.63;5030901;28;19965;-60
2021/08/06 04:52:40;;;;;;;;;;;;;;;-144.99;100.00;52338.03;5031563;28;19929;-60
2021/08/06 04:55:07;;;;;;;;;;;;;;;-144.99;100.00;52329.88;5041304;28;20286;-59
2021/08/06 04:57:33;;;;;;;;;;;;;;;-144.99;100.00;52329.88;5031607;28;19935;-60
2021/08/06 05:00:00;;;;;;;;;;;;;;;-144.99;100.00;52323.75;5048766;28;19965;-59
2021/08/06 05:02:26;;;;;;;;;;;;;;;-144.99;100.00;52338.03;5055658;28;19924;-60
2021/08/06 05:04:52;;;;;;;;;;;;;;;-144.99;99.76;52299.31;5045885;28;19960;-60
2021/08/06 05:07:19;;;;;;;;;;;;;;;-144.99;99.61;52391.03;5029941;28;19968;-62
2021/08/06 05:09:47;;;;;;;;;;;;;;;-144.99;99.59;52338.03;5030181;28;19932;-62
2021/08/06 05:12:13;;;;;;;;;;;;;;;-144.99;99.08;52309.50;5030531;28;19932;-60
2021/08/06 05:14:40;;;;;;;;;;;;;;;-144.99;98.70;52276.88;5030702;28;19931;-60
2021/08/06 05:17:06;;;;;;;;;;;;;;;-144.99;98.37;52293.19;5039171;28;20061;-61
2021/08/06 05:19:32;;;;;;;;;;;;;;;-144.99;97.96;52321.72;5046415;28;20542;-62
2021/08/06 05:21:59;;;;;;;;;;;;;;;-144.99;97.01;52299.31;5031583;28;19936;-61
2021/08/06 05:24:25;;;;;;;;;;;;;;;-144.99;96.77;52327.84;5031151;28;19964;-62
2021/08/06 05:26:53;;;;;;;;;;;;;;;-144.99;96.22;52333.94;5030698;28;19972;-63
2021/08/06 05:29:19;;;;;;;;;;;;;;;-144.99;95.68;52329.88;5030027;28;19972;-62
2021/08/06 05:31:45;;;;;;;;;;;;;;;-144.99;95.26;52303.38;5029840;28;20391;-62
2021/08/06 05:34:12;;;;;;;;;;;;;;;-144.99;94.60;52285.03;5029785;28;19966;-62
2021/08/06 05:36:38;;;;;;;;;;;;;;;-144.99;94.08;52309.50;5044139;28;19959;-61
2021/08/06 05:39:04;;;;;;;;;;;;;;;-144.99;93.07;52280.97;5055100;28;19964;-63
2021/08/06 05:41:31;;;;;;;;;;;;;;;-144.99;92.54;52313.56;5030585;28;20349;-61
2021/08/06 05:43:59;;;;;;;;;;;;;;;-144.99;91.23;52309.50;5030244;28;19937;-62
2021/08/06 05:46:25;;;;;;;;;;;;;;;-144.99;90.81;52289.13;5029226;28;20488;-62
2021/08/06 05:48:52;;;;;;;;;;;;;;;-144.99;89.89;52311.53;5029253;28;19979;-61
2021/08/06 05:51:18;;;;;;;;;;;;;;;-144.99;89.12;52311.53;5029537;28;20363;-61
2021/08/06 05:53:44;;;;;;;;;;;;;;;-144.99;88.85;52280.97;5030109;28;19936;-60
2021/08/06 05:56:11;;;;;;;;;;;;;;;-144.99;88.15;52317.66;5042155;28;19932;-59
2021/08/06 05:58:37;;;;;;;;;;;;;;;-144.99;88.11;52264.66;5038247;28;20043;-58
2021/08/06 06:01:05;;;;;;;;;;;;;;;-144.99;87.96;52344.16;5053409;28;20306;-59
2021/08/06 06:03:31;;;;;;;;;;;;;;;-144.99;86.85;52295.22;5066301;28;19930;-60
2021/08/06 06:05:57;;;;;;;;;;;;;;;-144.99;86.09;52272.81;5033755;28;19951;-60
2021/08/06 06:08:24;;;;;;;;;;;;;;;-144.99;85.79;52313.56;5034601;28;19929;-60
2021/08/06 06:10:50;;;;;;;;;;;;;;;-144.99;85.14;52305.41;5034658;28;19995;-60
2021/08/06 06:13:17;;;;;;;;;;;;;;;-144.99;84.99;52301.34;5034446;28;19963;-59
2021/08/06 06:15:43;;;;;;;;;;;;;;;-144.99;84.35;52297.25;5034198;28;19944;-60
2021/08/06 06:18:11;;;;;;;;;;;;;;;-144.99;83.98;52301.34;5059083;28;19931;-60
2021/08/06 06:20:37;;;;;;;;;;;;;;;-144.99;83.25;52260.56;5034125;28;20351;-60
2021/08/06 06:23:04;;;;;;;;;;;;;;;-144.99;82.78;52301.34;5033724;28;20019;-60
2021/08/06 06:25:31;;;;;;;;;;;;;;;-144.99;82.29;52276.88;5034066;28;19929;-59
2021/08/06 06:27:58;;;;;;;;;;;;;;;-144.99;82.23;52285.03;5033654;28;20355;-59
2021/08/06 06:30:25;;;;;;;;;;;;;;;-144.99;82.65;52338.03;5033393;28;20394;-62
2021/08/06 06:32:52;;;;;;;;;;;;;;;-144.99;82.02;52317.66;5033777;28;19925;-58
2021/08/06 06:35:20;;;;;;;;;;;;;;;-144.99;81.70;52293.19;5033907;28;19925;-59
2021/08/06 06:37:47;;;;;;;;;;;;;;;-144.99;81.72;52285.03;5050911;28;19955;-59
2021/08/06 06:40:14;;;;;;;;;;;;;;;-144.99;81.48;52305.41;5047626;28;19981;-60
2021/08/06 06:42:41;;;;;;;;;;;;;;;-144.99;81.05;52325.81;5033852;28;20333;-59
2021/08/06 06:45:08;;;;;;;;;;;;;;;-144.99;79.88;52272.81;5043836;28;19982;-60
2021/08/06 06:47:38;;;;;;;;;;;;;;;-144.99;79.25;52329.88;5049340;28;19936;-64
2021/08/06 06:50:05;;;;;;;;;;;;;;;-144.99;79.61;52346.19;5033650;28;20600;-65
2021/08/06 06:52:32;;;;;;;;;;;;;;;-144.99;79.71;52291.16;5032667;28;19925;-63
2021/08/06 06:54:59;;;;;;;;;;;;;;;-144.99;78.93;52305.41;5041077;28;20366;-63
2021/08/06 06:57:25;;;;;;;;;;;;;;;-144.99;79.12;52293.19;5036895;28;19932;-63
2021/08/06 06:59:51;;;;;;;;;;;;;;;-144.99;78.50;52293.19;5047973;28;19928;-63
2021/08/06 07:02:18;;;;;;;;;;;;;;;-144.99;77.90;52301.34;5058399;28;19925;-62
2021/08/06 07:04:44;;;;;;;;;;;;;;;-144.99;77.37;52297.25;5051359;28;19936;-61
2021/08/06 07:07:10;;;;;;;;;;;;;;;-144.99;76.14;52268.72;5036557;28;19925;-62
2021/08/06 07:09:38;;;;;;;;;;;;;;;-144.99;75.64;52285.03;5043609;28;19925;-61
2021/08/06 07:12:05;;;;;;;;;;;;;;;-144.99;76.54;52321.72;5032985;28;19969;-65
2021/08/06 07:14:31;;;;;;;;;;;;;;;-144.99;75.01;52289.13;5033924;28;19925;-66
2021/08/06 07:16:58;;;;;;;;;;;;;;;-144.99;75.54;52252.44;5040157;28;19947;-67
2021/08/06 07:19:25;;;;;;;;;;;;;;;-144.99;74.77;52260.56;5050872;28;19933;-66
2021/08/06 07:21:51;;;;;;;;;;;;;;;-144.99;74.90;52287.06;5051229;28;19936;-66
2021/08/06 07:24:18;;;;;;;;;;;;;;;-144.99;73.63;52305.41;5052897;28;19931;-65
2021/08/06 07:26:45;;;;;;;;;;;;;;;-144.99;72.88;52272.81;5034531;28;19932;-67
2021/08/06 07:29:12;;;;;;;;;;;;;;;-144.99;72.88;52264.66;5032614;28;19932;-67
2021/08/06 07:31:38;;;;;;;;;;;;;;;-144.99;72.47;52272.81;5032257;28;20295;-67
2021/08/06 07:34:04;;;;;;;;;;;;;;;-144.99;72.65;52240.19;5032242;28;20399;-67
2021/08/06 07:36:31;;;;;;;;;;;;;;;-144.99;72.46;52272.81;5044856;28;19966;-68
2021/08/06 07:38:57;;;;;;;;;;;;;;;-144.99;72.10;52280.97;5049364;28;19959;-65
2021/08/06 07:41:24;;;;;;;;;;;;;;;-144.99;71.05;52309.50;5032523;28;20387;-65
2021/08/06 07:43:51;;;;;;;;;;;;;;;-144.99;70.91;52276.88;5032764;28;19925;-66
2021/08/06 07:46:18;;;;;;;;;;;;;;;-144.99;71.03;52244.28;5038908;28;19925;-66
2021/08/06 07:48:44;;;;;;;;;;;;;;;-144.99;70.42;52268.72;5052460;28;19963;-64
2021/08/06 07:51:10;;;;;;;;;;;;;;;-144.99;69.97;52240.19;5052371;28;19932;-65
2021/08/06 07:53:37;;;;;;;;;;;;;;;-144.99;69.64;52268.72;5050888;28;19925;-65
2021/08/06 07:56:03;;;;;;;;;;;;;;;-144.99;70.05;52276.88;5051357;28;19931;-65
2021/08/06 07:58:29;;;;;;;;;;;;;;;-144.99;69.79;52236.13;5043252;28;19931;-64
2021/08/06 08:00:57;;;;;;;;;;;;;;;-144.99;69.78;52260.56;5049095;28;19958;-65
2021/08/06 08:03:24;;;;;;;;;;;;;;;-144.99;68.78;52242.22;5046519;28;19932;-65
2021/08/06 08:05:50;;;;;;;;;;;;;;;-144.99;68.45;52266.69;5045752;28;20333;-65
2021/08/06 08:08:16;;;;;;;;;;;;;;;-144.99;67.54;52268.72;5049255;28;19947;-66
2021/08/06 08:10:43;;;;;;;;;;;;;;;-144.99;66.75;52244.28;5046473;28;19928;-66
2021/08/06 08:13:09;;;;;;;;;;;;;;;-144.99;67.25;52252.44;5045039;28;19928;-65
2021/08/06 08:15:36;;;;;;;;;;;;;;;-144.99;66.51;52262.63;5045909;28;20306;-65
2021/08/06 08:18:03;;;;;;;;;;;;;;;-144.99;66.59;52221.84;5049680;28;19935;-65
2021/08/06 08:20:30;;;;;;;;;;;;;;;-144.99;65.93;52260.56;5044826;28;19925;-65
2021/08/06 08:22:56;;;;;;;;;;;;;;;-144.99;64.73;52225.94;5031723;28;19935;-66
2021/08/06 08:25:22;;;;;;;;;;;;;;;-144.99;64.85;52276.88;5031360;28;19925;-65
2021/08/06 08:27:49;;;;;;;;;;;;;;;-144.99;64.53;52266.69;5048357;28;19925;-64
2021/08/06 08:30:17;;;;;;;;;;;;;;;-144.99;65.55;52232.03;5044568;28;19936;-66
2021/08/06 08:32:43;;;;;;;;;;;;;;;-144.99;63.35;52252.44;5031342;28;19990;-65
2021/08/06 08:35:11;;;;;;;;;;;;;;;-144.99;63.14;52252.44;5032024;28;19929;-65
2021/08/06 08:37:38;;;;;;;;;;;;;;;-144.99;62.75;52252.44;5050822;28;19924;-66
2021/08/06 08:40:05;;;;;;;;;;;;;;;-144.99;63.15;52244.28;5046078;28;19932;-66
2021/08/06 08:42:32;;;;;;;;;;;;;;;-144.99;64.28;52252.44;5031412;28;20007;-65
2021/08/06 08:45:02;;;;;;;;;;;;;;;-144.99;63.51;52258.53;5034983;28;19964;-66
2021/08/06 08:47:28;;;;;;;;;;;;;;;-144.99;63.61;52205.53;5039126;28;19932;-65
2021/08/06 08:49:55;;;;;;;;;;;;;;;-144.99;62.78;52276.88;5035887;28;19943;-65
2021/08/06 08:52:23;;;;;;;;;;;;;;;-144.99;62.96;52244.28;5040572;28;19936;-65
2021/08/06 08:54:49;;;;;;;;;;;;;;;-144.99;62.88;52219.81;5046645;28;19925;-65
2021/08/06 08:57:18;;;;;;;;;;;;;;;-144.99;62.85;52236.13;5037499;28;19929;-66
2021/08/06 08:59:45;;;;;;;;;;;;;;;-144.99;62.74;52238.16;5054037;28;20271;-65
2021/08/06 09:02:11;;;;;;;;;;;;;;;-144.99;61.92;52219.81;5054794;28;19925;-65
2021/08/06 09:04:37;;;;;;;;;;;;;;;-144.99;62.05;52252.44;5037420;28;19925;-66
2021/08/06 09:07:04;;;;;;;;;;;;;;;-144.99;61.75;52236.13;5030320;28;19932;-66
2021/08/06 09:09:32;;;;;;;;;;;;;;;-144.99;62.19;52234.09;5030614;28;20411;-66
2021/08/06 09:12:06;;;;;;;;;;;;;;;-144.99;62.49;52195.34;5036922;28;19925;-65
2021/08/06 09:14:33;;;;;;;;;;;;;;;-144.99;62.35;52205.53;5042956;28;19933;-66
2021/08/06 09:17:01;;;;;;;;;;;;;;;-144.99;61.25;52189.25;5042990;28;19924;-65
2021/08/06 09:19:28;;;;;;;;;;;;;;;-144.99;61.07;52203.50;5041531;28;20359;-67
2021/08/06 09:22:07;;;;;;;;;;;;;;;-144.99;60.59;52211.66;5040839;28;19932;-66
2021/08/06 09:24:35;;;;;;;;;;;;;;;-144.99;59.50;52215.75;5030767;28;19999;-65
2021/08/06 09:27:02;;;;;;;;;;;;;;;-144.99;59.33;52211.66;5030849;28;19925;-66
2021/08/06 09:29:28;;;;;;;;;;;;;;;-144.99;59.22;52181.09;5030181;28;19929;-66
2021/08/06 09:31:59;;;;;;;;;;;;;;;-144.99;58.70;52197.41;5030112;28;19925;-64
2021/08/06 09:34:27;;;;;;;;;;;;;;;-144.99;59.05;52195.34;5039957;28;19929;-67
2021/08/06 09:36:54;;;;;;;;;;;;;;;-144.99;58.39;52166.81;5046621;28;19924;-65
2021/08/06 09:39:21;;;;;;;;;;;;;;;-144.99;57.80;52179.06;5058113;28;19964;-67
2021/08/06 09:41:49;;;;;;;;;;;;;;;-144.99;58.00;52199.44;5042934;28;19963;-66
2021/08/06 09:44:17;;;;;;;;;;;;;;;-144.99;57.34;52187.19;5032207;28;19971;-65
2021/08/06 09:46:44;;;;;;;;;;;;;;;-144.99;57.89;52185.16;5032098;28;19968;-66
2021/08/06 09:49:10;;;;;;;;;;;;;;;-144.99;57.13;52211.66;5032951;28;19963;-65
2021/08/06 09:51:38;;;;;;;;;;;;;;;-144.99;56.71;52199.44;5038614;28;19969;-65
2021/08/06 09:54:17;;;;;;;;;;;;;;;-144.99;55.71;52174.97;5047816;28;19950;-65
2021/08/06 09:56:43;;;;;;;;;;;;;;;-144.99;55.75;52195.34;5043285;28;19966;-66
2021/08/06 09:59:11;;;;;;;;;;;;;;;-144.99;55.94;52170.91;5042943;28;20317;-66
2021/08/06 10:01:37;;;;;;;;;;;;;;;-144.99;56.17;52195.34;5052670;28;19946;-65
2021/08/06 10:04:13;;;;;;;;;;;;;;;-144.99;56.20;52158.66;5056300;28;19925;-66
2021/08/06 10:06:39;;;;;;;;;;;;;;;-144.99;55.30;52166.81;5030151;28;19960;-65
2021/08/06 10:09:05;;;;;;;;;;;;;;;-144.99;54.73;52191.28;5040496;28;19981;-65
2021/08/06 10:11:32;;;;;;;;;;;;;;;-144.99;54.86;52124.03;5050160;28;20035;-66
2021/08/06 10:13:58;;;;;;;;;;;;;;;-144.99;53.92;52162.75;5050026;28;20011;-65
2021/08/06 10:16:26;;;;;;;;;;;;;;;-144.99;53.98;52121.97;5046351;28;19925;-66
2021/08/06 10:18:53;;;;;;;;;;;;;;;-144.99;54.92;52140.31;5055038;28;19932;-67
2021/08/06 10:21:22;;;;;;;;;;;;;;;-144.99;54.64;52183.13;5029955;28;19925;-66
2021/08/06 10:23:48;;;;;;;;;;;;;;;-144.99;54.03;52162.75;5030713;28;19925;-66
2021/08/06 10:26:15;;;;;;;;;;;;;;;-144.99;53.43;52138.28;5032364;28;20109;-63
2021/08/06 10:28:42;;;;;;;;;;;;;;;-144.99;53.51;52183.13;5049784;28;19924;-69
2021/08/06 10:31:18;;;;;;;;;;;;;;;-144.99;53.46;52121.97;5047696;28;19925;-64
2021/08/06 10:34:00;;;;;;;;;;;;;;;-144.99;53.70;52138.28;5029790;28;20458;-64
2021/08/06 10:36:39;;;;;;;;;;;;;;;-144.99;53.78;52097.53;5040685;28;19967;-63
2021/08/06 10:39:06;;;;;;;;;;;;;;;-144.99;52.70;52093.44;5044615;28;19948;-63
2021/08/06 10:41:49;;;;;;;;;;;;;;;-144.99;52.58;52105.69;5049946;28;20087;-63
2021/08/06 10:44:15;;;;;;;;;;;;;;;-144.99;51.73;52048.63;5032651;28;19925;-63
2021/08/06 10:46:57;;;;;;;;;;;;;;;-144.99;51.99;52060.84;5046818;28;19931;-64
2021/08/06 10:49:24;;;;;;;;;;;;;;;-144.99;51.67;52101.59;5044751;28;19925;-63
2021/08/06 10:52:10;;;;;;;;;;;;;;;-144.99;51.83;52044.53;5033007;28;20397;-64
2021/08/06 10:54:37;;;;;;;;;;;;;;;-144.99;51.67;52044.53;5034963;28;20409;-63
2021/08/06 10:57:13;;;;;;;;;;;;;;;-144.99;51.93;52036.38;5040837;28;19933;-63
2021/08/06 10:59:40;;;;;;;;;;;;;;;-144.99;51.33;52062.88;5046213;28;19937;-63
2021/08/06 11:02:26;;;;;;;;;;;;;;;-144.99;51.89;52113.84;5047758;28;19929;-63
2021/08/06 11:04:53;;;;;;;;;;;;;;;-144.99;51.36;52044.53;5056031;28;20377;-63
2021/08/06 11:07:33;;;;;;;;;;;;;;;-144.99;50.88;52044.53;5047392;28;20479;-63
2021/08/06 11:10:00;;;;;;;;;;;;;;;-144.99;50.63;52032.31;5047891;28;19935;-63
2021/08/06 11:12:33;;;;;;;;;;;;;;;-144.99;50.35;52003.78;5044256;28;19929;-63
2021/08/06 11:15:02;;;;;;;;;;;;;;;-144.99;50.24;52024.16;5039904;28;19936;-62
2021/08/06 11:17:49;;;;;;;;;;;;;;;-144.99;49.83;51938.56;5050356;28;19926;-62
2021/08/06 11:20:17;;;;;;;;;;;;;;;-144.99;50.34;51995.63;5043756;28;19983;-62
2021/08/06 11:22:45;;;;;;;;;;;;;;;-144.99;49.89;52103.66;5032013;28;20425;-62
2021/08/06 11:25:18;;;;;;;;;;;;;;;-144.99;49.96;51997.66;5043694;28;19948;-64
2021/08/06 11:27:45;;;;;;;;;;;;;;;-144.99;50.13;52016.00;5032874;28;19948;-63
2021/08/06 11:30:13;;;;;;;;;;;;;;;-144.99;51.11;52162.75;5032486;28;19932;-62
2021/08/06 11:32:46;;;;;;;;;;;;;;;-144.99;51.72;52158.66;5032288;28;19925;-63
2021/08/06 11:35:13;;;;;;;;;;;;;;;-144.99;51.95;52164.78;5032659;28;20497;-63
2021/08/06 11:37:48;;;;;;;;;;;;;;;-144.99;52.01;52113.84;5047718;28;19936;-64
2021/08/06 11:40:15;;;;;;;;;;;;;;;-144.99;53.00;52187.19;5056833;28;19935;-64
2021/08/06 11:42:42;;;;;;;;;;;;;;;-144.99;52.82;52028.22;5045280;28;19925;-62
2021/08/06 11:45:09;;;;;;;;;;;;;;;-144.99;51.09;52036.38;5038359;28;19925;-62
2021/08/06 11:47:36;;;;;;;;;;;;;;;-144.99;50.92;52022.13;5050139;28;19925;-64
2021/08/06 11:50:03;;;;;;;;;;;;;;;-144.99;51.29;52134.22;5032217;28;19925;-62
2021/08/06 11:52:35;;;;;;;;;;;;;;;-144.99;51.50;52097.53;5038058;28;19929;-64
2021/08/06 11:55:03;;;;;;;;;;;;;;;-144.99;52.02;52162.75;5053577;28;19931;-63
2021/08/06 11:57:42;;;;;;;;;;;;;;;-144.99;52.86;52044.53;5038045;28;19925;-64
2021/08/06 12:00:18;;;;;;;;;;;;;;;-144.99;53.11;52052.69;5052696;28;19924;-63
2021/08/06 12:02:45;;;;;;;;;;;;;;;-144.99;51.51;52168.84;5060058;28;20016;-64
2021/08/06 12:05:21;;;;;;;;;;;;;;;-144.99;52.30;52183.13;5041840;28;20271;-65
2021/08/06 12:07:47;;;;;;;;;;;;;;;-144.99;52.35;52179.06;5035271;28;20016;-64
2021/08/06 12:10:15;;;;;;;;;;;;;;;-144.99;53.20;52152.56;5054663;28;19932;-63
2021/08/06 12:12:41;;;;;;;;;;;;;;;-144.99;53.78;52240.19;5050911;28;20160;-63
2021/08/06 12:15:21;;;;;;;;;;;;;;;-144.99;54.76;52195.34;5031913;28;20479;-64
2021/08/06 12:17:47;;;;;;;;;;;;;;;-144.99;54.28;52203.50;5052808;28;19935;-64
2021/08/06 12:20:13;;;;;;;;;;;;;;;-144.99;54.61;52215.75;5039589;28;19925;-63
2021/08/06 12:22:41;;;;;;;;;;;;;;;-144.99;55.13;52199.44;5055466;28;20401;-63
2021/08/06 12:25:12;;;;;;;;;;;;;;;-144.99;55.93;52215.75;5044995;28;20055;-65
2021/08/06 12:27:39;;;;;;;;;;;;;;;-144.99;56.66;52185.16;5055582;28;19925;-63